Time;durP1;ratioP1;P1;durP2;ratioP2;P2;SDS_P1;SDS_P2;PMS_P1;PMS_P2;Temp;Humidity;BMP_temperature;BMP_pressure;BME280_temperature;BME280_humidity;BME280_pressure;Samples;Min_cycle;Max_cycle;Signal;HPM_P1;HPM_P2
2021/01/16 00:00:32;;;;;;;;;;;-2.60;99.90;;;;;;5072889;28;19924;-70
2021/01/16 00:02:58;;;;;;;;;;;-2.60;99.90;;;;;;5072422;28;19932;-70
2021/01/16 00:05:25;;;;;;;;;;;-2.60;99.90;;;;;;5072974;28;19932;-70
2021/01/16 00:07:59;;;;;;;;;;;-2.70;99.90;;;;;;5073122;28;19977;-71
2021/01/16 00:10:25;;;;;;;;;;;-2.70;99.90;;;;;;5077342;28;20057;-70
2021/01/16 00:12:51;;;;;;;;;;;-2.70;99.90;;;;;;5093263;28;19928;-70
2021/01/16 00:15:18;;;;;;;;;;;-2.80;99.90;;;;;;5093129;28;20377;-71
2021/01/16 00:17:44;;;;;;;;;;;-2.90;99.90;;;;;;5093253;28;19924;-70
2021/01/16 00:20:10;;;;;;;;;;;-3.00;99.90;;;;;;5074793;28;19924;-70
2021/01/16 00:22:46;;;;;;;;;;;-3.00;99.90;;;;;;5072757;28;20404;-70
2021/01/16 00:25:12;;;;;;;;;;;-3.10;99.90;;;;;;5072615;28;20311;-70
2021/01/16 00:27:38;;;;;;;;;;;-3.20;99.90;;;;;;5072993;28;19924;-70
2021/01/16 00:30:05;;;;;;;;;;;-3.20;99.90;;;;;;5072628;28;19924;-70
2021/01/16 00:32:32;;;;;;;;;;;-3.30;99.90;;;;;;5072791;28;19925;-70
2021/01/16 00:34:58;;;;;;;;;;;-3.40;99.90;;;;;;5072625;28;19947;-70
2021/01/16 00:37:24;;;;;;;;;;;-3.40;99.90;;;;;;5072530;28;20370;-70
2021/01/16 00:39:50;;;;;;;;;;;-3.40;99.90;;;;;;5072073;28;19931;-70
2021/01/16 00:42:16;;;;;;;;;;;-3.50;99.90;;;;;;5072550;28;19924;-70
2021/01/16 00:44:42;;;;;;;;;;;-3.50;99.90;;;;;;5072350;28;20307;-70
2021/01/16 00:47:08;;;;;;;;;;;-3.50;99.90;;;;;;5072445;28;19924;-70
2021/01/16 00:49:34;;;;;;;;;;;-3.40;99.90;;;;;;5072509;28;19924;-70
2021/01/16 00:52:00;;;;;;;;;;;-3.40;99.90;;;;;;5072067;28;19939;-70
2021/01/16 00:54:26;;;;;;;;;;;-3.40;99.90;;;;;;5072291;28;19928;-70
2021/01/16 00:56:52;;;;;;;;;;;-3.40;99.90;;;;;;5072168;28;20293;-70
2021/01/16 00:59:18;;;;;;;;;;;-3.30;99.90;;;;;;5072168;28;19925;-70
2021/01/16 01:01:44;;;;;;;;;;;-3.30;99.90;;;;;;5073161;28;19925;-70
2021/01/16 01:04:10;;;;;;;;;;;-3.10;99.90;;;;;;5072087;28;19924;-70
2021/01/16 01:06:37;;;;;;;;;;;-3.20;99.90;;;;;;5072236;28;19925;-70
2021/01/16 01:09:03;;;;;;;;;;;-3.20;99.90;;;;;;5072183;28;19924;-70
2021/01/16 01:11:29;;;;;;;;;;;-3.10;99.90;;;;;;5071937;28;19959;-70
2021/01/16 01:13:55;;;;;;;;;;;-3.00;99.90;;;;;;5072330;28;19924;-70
2021/01/16 01:16:21;;;;;;;;;;;-3.00;99.90;;;;;;5093295;28;20377;-70
2021/01/16 01:18:48;;;;;;;;;;;-2.90;99.90;;;;;;5096816;28;19935;-71
2021/01/16 01:21:14;;;;;;;;;;;-2.90;99.90;;;;;;5096130;28;20304;-70
2021/01/16 01:23:41;;;;;;;;;;;-2.80;99.90;;;;;;5096164;28;20399;-70
2021/01/16 01:26:07;;;;;;;;;;;-2.70;99.90;;;;;;5096571;28;19936;-70
2021/01/16 01:28:33;;;;;;;;;;;-2.70;99.90;;;;;;5087839;28;19925;-70
2021/01/16 01:30:59;;;;;;;;;;;-2.70;99.90;;;;;;5075800;28;19925;-71
2021/01/16 01:33:25;;;;;;;;;;;-2.70;99.90;;;;;;5075890;28;20308;-71
2021/01/16 01:35:51;;;;;;;;;;;-2.60;99.90;;;;;;5075820;28;19924;-70
2021/01/16 01:38:17;;;;;;;;;;;-2.50;99.90;;;;;;5076062;28;20339;-70
2021/01/16 01:40:44;;;;;;;;;;;-2.50;99.90;;;;;;5075638;28;19924;-70
2021/01/16 01:43:11;;;;;;;;;;;-2.50;99.90;;;;;;5075761;28;19924;-71
2021/01/16 01:45:37;;;;;;;;;;;-2.40;99.90;;;;;;5075739;28;19973;-70
2021/01/16 01:48:04;;;;;;;;;;;-2.30;99.90;;;;;;5075694;28;19924;-71
2021/01/16 01:50:30;;;;;;;;;;;-2.20;99.90;;;;;;5075213;28;19925;-70
2021/01/16 01:52:57;;;;;;;;;;;-2.20;99.90;;;;;;5075711;28;19983;-70
2021/01/16 01:55:23;;;;;;;;;;;-2.20;99.90;;;;;;5075537;28;19924;-70
2021/01/16 01:57:51;;;;;;;;;;;-2.20;99.90;;;;;;5094847;28;19990;-71
2021/01/16 02:00:17;;;;;;;;;;;-2.20;99.90;;;;;;5095494;28;19928;-71
2021/01/16 02:02:44;;;;;;;;;;;-2.20;99.90;;;;;;5095672;28;20005;-70
2021/01/16 02:05:11;;;;;;;;;;;-2.10;99.90;;;;;;5095346;28;19924;-71
2021/01/16 02:07:38;;;;;;;;;;;-2.10;99.90;;;;;;5095814;28;19928;-71
2021/01/16 02:10:06;;;;;;;;;;;-2.10;99.90;;;;;;5095169;28;20532;-70
2021/01/16 02:12:32;;;;;;;;;;;-2.10;99.90;;;;;;5095318;28;19924;-70
2021/01/16 02:15:06;;;;;;;;;;;-2.10;99.90;;;;;;5095506;28;19924;-71
2021/01/16 02:17:34;;;;;;;;;;;-2.00;99.90;;;;;;5094753;28;19924;-70
2021/01/16 02:20:06;;;;;;;;;;;-2.10;99.90;;;;;;5074965;28;19924;-70
2021/01/16 02:22:33;;;;;;;;;;;-2.00;99.90;;;;;;5087324;28;19925;-71
2021/01/16 02:25:08;;;;;;;;;;;-2.00;99.90;;;;;;5086219;28;19977;-70
2021/01/16 02:27:46;;;;;;;;;;;-2.00;99.90;;;;;;5094639;28;19924;-71
2021/01/16 02:30:12;;;;;;;;;;;-2.00;99.90;;;;;;5094759;28;19932;-70
2021/01/16 02:32:41;;;;;;;;;;;-2.00;99.90;;;;;;5095164;28;19981;-70
2021/01/16 02:35:07;;;;;;;;;;;-1.90;99.90;;;;;;5095324;28;19928;-70
2021/01/16 02:37:49;;;;;;;;;;;-1.90;99.90;;;;;;5095120;28;19924;-70
2021/01/16 02:40:16;;;;;;;;;;;-1.90;99.90;;;;;;5094316;28;19924;-70
2021/01/16 02:42:47;;;;;;;;;;;-1.90;99.90;;;;;;5094855;28;20335;-70
2021/01/16 02:45:15;;;;;;;;;;;-1.80;99.90;;;;;;5094785;28;20316;-70
2021/01/16 02:47:47;;;;;;;;;;;-1.80;99.90;;;;;;5095015;28;20024;-70
2021/01/16 02:50:15;;;;;;;;;;;-1.70;99.90;;;;;;5089114;28;19924;-70
2021/01/16 02:52:44;;;;;;;;;;;-1.70;99.90;;;;;;5074310;28;20322;-70
2021/01/16 02:55:11;;;;;;;;;;;-1.70;99.90;;;;;;5074384;28;20005;-70
2021/01/16 02:57:37;;;;;;;;;;;-1.70;99.90;;;;;;5073921;28;20124;-70
2021/01/16 03:00:06;;;;;;;;;;;-1.70;99.90;;;;;;5074002;28;19925;-70
2021/01/16 03:02:36;;;;;;;;;;;-1.70;99.90;;;;;;5074055;28;19924;-70
2021/01/16 03:05:03;;;;;;;;;;;-1.80;99.90;;;;;;5074229;28;19932;-70
2021/01/16 03:07:29;;;;;;;;;;;-1.70;99.90;;;;;;5074195;28;19924;-71
2021/01/16 03:09:56;;;;;;;;;;;-1.70;99.90;;;;;;5073870;28;19932;-70
2021/01/16 03:12:22;;;;;;;;;;;-1.60;99.90;;;;;;5074006;28;19972;-70
2021/01/16 03:14:51;;;;;;;;;;;-1.70;99.90;;;;;;5073992;28;19933;-70
2021/01/16 03:17:18;;;;;;;;;;;-1.70;99.90;;;;;;5073831;28;19929;-71
2021/01/16 03:19:45;;;;;;;;;;;-1.70;99.90;;;;;;5091820;28;19924;-71
2021/01/16 03:22:18;;;;;;;;;;;-1.70;99.90;;;;;;5094013;28;19932;-71
2021/01/16 03:24:45;;;;;;;;;;;-1.70;99.90;;;;;;5093925;28;20380;-69
2021/01/16 03:27:11;;;;;;;;;;;-1.70;99.90;;;;;;5093804;28;20384;-71
2021/01/16 03:29:40;;;;;;;;;;;-1.70;99.90;;;;;;5093732;28;19924;-71
2021/01/16 03:32:07;;;;;;;;;;;-1.60;99.90;;;;;;5093603;28;19977;-71
2021/01/16 03:34:37;;;;;;;;;;;-1.60;99.90;;;;;;5075031;28;19924;-70
2021/01/16 03:37:04;;;;;;;;;;;-1.60;99.90;;;;;;5073538;28;19931;-70
2021/01/16 03:39:30;;;;;;;;;;;-1.60;99.90;;;;;;5072145;28;19955;-70
2021/01/16 03:41:56;;;;;;;;;;;-1.60;99.90;;;;;;5072947;28;19931;-70
2021/01/16 03:44:22;;;;;;;;;;;-1.60;99.90;;;;;;5073194;28;20483;-70
2021/01/16 03:46:48;;;;;;;;;;;-1.60;99.90;;;;;;5083461;28;20323;-70
2021/01/16 03:49:14;;;;;;;;;;;-1.50;99.90;;;;;;5093615;28;19924;-70
2021/01/16 03:51:42;;;;;;;;;;;-1.60;99.90;;;;;;5093206;28;19951;-71
2021/01/16 03:54:08;;;;;;;;;;;-1.60;99.90;;;;;;5093473;28;19928;-71
2021/01/16 03:56:34;;;;;;;;;;;-1.60;99.90;;;;;;5093491;28;20258;-70
2021/01/16 03:59:01;;;;;;;;;;;-1.60;99.90;;;;;;5093408;28;19931;-70
2021/01/16 04:01:27;;;;;;;;;;;-1.50;99.90;;;;;;5093248;28;19924;-70
2021/01/16 04:03:53;;;;;;;;;;;-1.60;99.90;;;;;;5093156;28;19924;-71
2021/01/16 04:06:19;;;;;;;;;;;-1.60;99.90;;;;;;5093444;28;19924;-71
2021/01/16 04:08:46;;;;;;;;;;;-1.60;99.90;;;;;;5090289;28;19925;-69
2021/01/16 04:11:12;;;;;;;;;;;-1.60;99.90;;;;;;5072572;28;19924;-70
2021/01/16 04:13:38;;;;;;;;;;;-1.60;99.90;;;;;;5073943;28;20022;-70
2021/01/16 04:16:05;;;;;;;;;;;-1.50;99.90;;;;;;5093187;28;19924;-70
2021/01/16 04:18:31;;;;;;;;;;;-1.60;99.90;;;;;;5093360;28;19924;-70
2021/01/16 04:20:57;;;;;;;;;;;-1.50;99.90;;;;;;5092741;28;20308;-68
2021/01/16 04:23:23;;;;;;;;;;;-1.50;99.90;;;;;;5093023;28;19924;-68
2021/01/16 04:25:50;;;;;;;;;;;-1.50;99.90;;;;;;5092903;28;20667;-67
2021/01/16 04:28:16;;;;;;;;;;;-1.50;99.90;;;;;;5090479;28;21403;-68
2021/01/16 04:30:42;;;;;;;;;;;-1.50;99.90;;;;;;5072445;28;20381;-68
2021/01/16 04:33:08;;;;;;;;;;;-1.60;99.90;;;;;;5072728;28;19929;-68
2021/01/16 04:35:34;;;;;;;;;;;-1.60;99.90;;;;;;5072605;28;19932;-68
2021/01/16 04:38:00;;;;;;;;;;;-1.60;99.90;;;;;;5072580;28;20443;-71
2021/01/16 04:40:27;;;;;;;;;;;-1.60;99.90;;;;;;5072142;28;19928;-71
2021/01/16 04:42:54;;;;;;;;;;;-1.60;99.90;;;;;;5072291;28;19932;-71
2021/01/16 04:45:20;;;;;;;;;;;-1.60;99.90;;;;;;5072599;28;19924;-71
2021/01/16 04:47:48;;;;;;;;;;;-1.60;99.90;;;;;;5073612;28;19946;-72
2021/01/16 04:50:14;;;;;;;;;;;-1.60;99.90;;;;;;5071594;28;19950;-71
2021/01/16 04:52:41;;;;;;;;;;;-1.60;99.90;;;;;;5072243;28;19950;-71
2021/01/16 04:55:08;;;;;;;;;;;-1.70;99.90;;;;;;5072286;28;19929;-71
2021/01/16 04:57:34;;;;;;;;;;;-1.60;99.90;;;;;;5072512;28;19946;-71
2021/01/16 05:00:00;;;;;;;;;;;-1.70;99.90;;;;;;5072173;28;19924;-71
2021/01/16 05:02:30;;;;;;;;;;;-1.60;99.90;;;;;;5072262;28;20286;-71
2021/01/16 05:04:59;;;;;;;;;;;-1.60;99.90;;;;;;5072148;28;19931;-71
2021/01/16 05:07:25;;;;;;;;;;;-1.60;99.90;;;;;;5072172;28;19929;-71
2021/01/16 05:09:52;;;;;;;;;;;-1.60;99.90;;;;;;5072183;28;19931;-71
2021/01/16 05:12:33;;;;;;;;;;;-1.70;99.90;;;;;;5072328;28;20304;-71
2021/01/16 05:15:05;;;;;;;;;;;-1.70;99.90;;;;;;5072363;28;19931;-72
2021/01/16 05:17:33;;;;;;;;;;;-1.70;99.90;;;;;;5072181;28;20300;-71
2021/01/16 05:20:00;;;;;;;;;;;-1.60;99.90;;;;;;5071740;28;20310;-71
2021/01/16 05:22:27;;;;;;;;;;;-1.60;99.90;;;;;;5072264;28;19925;-71
2021/01/16 05:24:52;;;;;;;;;;;-1.60;99.90;;;;;;5072180;28;19924;-71
2021/01/16 05:27:20;;;;;;;;;;;-1.50;99.90;;;;;;5072212;28;20400;-71
2021/01/16 05:29:46;;;;;;;;;;;-1.50;99.90;;;;;;5071770;28;19947;-71
2021/01/16 05:32:13;;;;;;;;;;;-1.50;99.90;;;;;;5071925;28;19951;-72
2021/01/16 05:34:39;;;;;;;;;;;-1.40;99.90;;;;;;5072016;28;20266;-71
2021/01/16 05:37:05;;;;;;;;;;;-1.40;99.90;;;;;;5072270;28;19931;-71
2021/01/16 05:39:32;;;;;;;;;;;-1.40;99.90;;;;;;5072065;28;19924;-71
2021/01/16 05:41:59;;;;;;;;;;;-1.40;99.90;;;;;;5071710;28;19978;-71
2021/01/16 05:44:26;;;;;;;;;;;-1.40;99.90;;;;;;5071880;28;19924;-71
2021/01/16 05:46:53;;;;;;;;;;;-1.40;99.90;;;;;;5071933;28;19931;-71
2021/01/16 05:49:21;;;;;;;;;;;-1.40;99.90;;;;;;5071782;28;19932;-71
2021/01/16 05:51:48;;;;;;;;;;;-1.50;99.90;;;;;;5071529;28;19932;-71
2021/01/16 05:54:15;;;;;;;;;;;-1.50;99.90;;;;;;5072042;28;19947;-71
2021/01/16 05:56:42;;;;;;;;;;;-1.40;99.90;;;;;;5071775;28;19925;-71
2021/01/16 05:59:11;;;;;;;;;;;-1.40;99.90;;;;;;5071783;28;20369;-71
2021/01/16 06:01:38;;;;;;;;;;;-1.40;99.90;;;;;;5072279;28;20018;-72
2021/01/16 06:04:04;;;;;;;;;;;-1.40;99.90;;;;;;5075440;28;19925;-71
2021/01/16 06:06:33;;;;;;;;;;;-1.40;99.90;;;;;;5075558;28;19925;-71
2021/01/16 06:08:59;;;;;;;;;;;-1.40;99.90;;;;;;5075421;28;19970;-71
2021/01/16 06:11:25;;;;;;;;;;;-1.40;99.90;;;;;;5074946;28;20344;-72
2021/01/16 06:13:53;;;;;;;;;;;-1.40;99.90;;;;;;5075150;28;19924;-71
2021/01/16 06:16:20;;;;;;;;;;;-1.40;99.90;;;;;;5075024;28;20399;-72
2021/01/16 06:18:47;;;;;;;;;;;-1.40;99.90;;;;;;5075334;28;19925;-72
2021/01/16 06:21:20;;;;;;;;;;;-1.40;99.90;;;;;;5074916;28;19924;-71
2021/01/16 06:23:51;;;;;;;;;;;-1.30;99.90;;;;;;5074869;28;19924;-71
2021/01/16 06:26:18;;;;;;;;;;;-1.30;99.90;;;;;;5075040;28;19928;-71
2021/01/16 06:28:52;;;;;;;;;;;-1.30;99.90;;;;;;5075009;28;20381;-71
2021/01/16 06:31:22;;;;;;;;;;;-1.30;99.90;;;;;;5074810;28;19975;-71
2021/01/16 06:33:55;;;;;;;;;;;-1.30;99.90;;;;;;5074743;28;20335;-71
2021/01/16 06:36:25;;;;;;;;;;;-1.40;99.90;;;;;;5074833;28;19925;-71
2021/01/16 06:38:55;;;;;;;;;;;-1.40;99.90;;;;;;5074714;28;19931;-71
2021/01/16 06:41:26;;;;;;;;;;;-1.40;99.90;;;;;;5074331;28;19930;-71
2021/01/16 06:43:53;;;;;;;;;;;-1.40;99.90;;;;;;5074764;28;19932;-72
2021/01/16 06:46:19;;;;;;;;;;;-1.30;99.90;;;;;;5074591;28;20385;-71
2021/01/16 06:48:45;;;;;;;;;;;-1.30;99.90;;;;;;5074492;28;20386;-71
2021/01/16 06:51:21;;;;;;;;;;;-3.20;99.90;;;;;;5074315;28;19947;-71
2021/01/16 06:53:47;;;;;;;;;;;-1.40;99.90;;;;;;5074396;28;19932;-71
2021/01/16 06:56:15;;;;;;;;;;;-1.30;99.90;;;;;;5074475;28;19985;-71
2021/01/16 06:58:41;;;;;;;;;;;-1.40;99.90;;;;;;5074575;28;19964;-71
2021/01/16 07:01:08;;;;;;;;;;;-1.30;99.90;;;;;;5074135;28;19981;-71
2021/01/16 07:03:38;;;;;;;;;;;-1.40;99.90;;;;;;5074422;28;19924;-71
2021/01/16 07:06:05;;;;;;;;;;;-1.40;99.90;;;;;;5074242;28;20454;-71
2021/01/16 07:08:32;;;;;;;;;;;-1.40;99.90;;;;;;5074218;28;19924;-71
2021/01/16 07:10:58;;;;;;;;;;;-1.30;99.90;;;;;;5073777;28;19931;-72
2021/01/16 07:13:25;;;;;;;;;;;-1.30;99.90;;;;;;5073717;28;20450;-71
2021/01/16 07:15:53;;;;;;;;;;;-1.30;99.90;;;;;;5074109;28;19947;-71
2021/01/16 07:18:19;;;;;;;;;;;-1.30;99.90;;;;;;5073934;28;19924;-71
2021/01/16 07:20:47;;;;;;;;;;;-1.30;99.90;;;;;;5073687;28;19925;-71
2021/01/16 07:23:14;;;;;;;;;;;-1.30;99.90;;;;;;5073996;28;19925;-71
2021/01/16 07:25:40;;;;;;;;;;;-1.30;99.90;;;;;;5073883;28;19931;-71
2021/01/16 07:28:06;;;;;;;;;;;-1.30;99.90;;;;;;5073893;28;19924;-71
2021/01/16 07:30:33;;;;;;;;;;;-1.30;99.90;;;;;;5073466;28;19925;-71
2021/01/16 07:33:01;;;;;;;;;;;-1.30;99.90;;;;;;5073506;28;19935;-71
2021/01/16 07:35:27;;;;;;;;;;;-1.30;99.90;;;;;;5073457;28;20546;-71
2021/01/16 07:37:54;;;;;;;;;;;-1.30;99.90;;;;;;5073657;28;19932;-71
2021/01/16 07:40:21;;;;;;;;;;;-1.30;99.90;;;;;;5073361;28;19931;-71
2021/01/16 07:42:48;;;;;;;;;;;-1.20;99.90;;;;;;5073533;28;20296;-71
2021/01/16 07:45:23;;;;;;;;;;;-1.20;99.90;;;;;;5073233;28;20393;-71
2021/01/16 07:47:51;;;;;;;;;;;-1.20;99.90;;;;;;5073370;28;19932;-72
2021/01/16 07:50:20;;;;;;;;;;;-1.20;99.90;;;;;;5072998;28;19978;-72
2021/01/16 07:52:53;;;;;;;;;;;-1.20;99.90;;;;;;5073328;28;19924;-72
2021/01/16 07:55:19;;;;;;;;;;;-1.20;99.90;;;;;;5073287;28;19973;-72
2021/01/16 07:57:48;;;;;;;;;;;-1.10;99.90;;;;;;5073305;28;19985;-72
2021/01/16 08:00:15;;;;;;;;;;;-1.10;99.90;;;;;;5072966;28;19940;-72
2021/01/16 08:02:59;;;;;;;;;;;-1.00;99.90;;;;;;5072880;28;19931;-72
2021/01/16 08:05:27;;;;;;;;;;;-1.00;99.90;;;;;;5065675;28;19925;-72
2021/01/16 08:08:03;;;;;;;;;;;-1.00;99.90;;;;;;5073108;28;20023;-72
2021/01/16 08:10:29;;;;;;;;;;;-1.00;99.90;;;;;;5072545;28;20308;-71
2021/01/16 08:12:57;;;;;;;;;;;-1.00;99.90;;;;;;5072670;28;19924;-71
2021/01/16 08:15:28;;;;;;;;;;;-1.00;99.90;;;;;;5072906;28;20315;-71
2021/01/16 08:17:54;;;;;;;;;;;-1.00;99.90;;;;;;5072880;28;20331;-71
2021/01/16 08:20:27;;;;;;;;;;;-1.00;99.90;;;;;;5072635;28;19957;-71
2021/01/16 08:22:55;;;;;;;;;;;-1.10;99.90;;;;;;5072814;28;19924;-71
2021/01/16 08:25:22;;;;;;;;;;;-1.00;99.90;;;;;;5071975;28;19925;-71
2021/01/16 08:27:49;;;;;;;;;;;-1.00;99.90;;;;;;5072869;28;19978;-71
2021/01/16 08:30:16;;;;;;;;;;;-1.00;99.90;;;;;;5072257;28;19958;-71
2021/01/16 08:32:52;;;;;;;;;;;-1.00;99.90;;;;;;5072662;28;19970;-71
2021/01/16 08:35:20;;;;;;;;;;;-0.90;99.90;;;;;;5072542;28;19940;-71
2021/01/16 08:37:47;;;;;;;;;;;-0.90;99.90;;;;;;5072471;28;20270;-71
2021/01/16 08:40:30;;;;;;;;;;;-0.90;99.90;;;;;;5072031;28;19928;-71
2021/01/16 08:42:56;;;;;;;;;;;-0.80;99.90;;;;;;5072494;28;20293;-71
2021/01/16 08:45:22;;;;;;;;;;;-0.80;99.90;;;;;;5072470;28;19939;-71
2021/01/16 08:47:49;;;;;;;;;;;-0.90;99.90;;;;;;5072439;28;19924;-71
2021/01/16 08:50:15;;;;;;;;;;;-0.90;99.90;;;;;;5072076;28;19924;-71
2021/01/16 08:52:42;;;;;;;;;;;-0.90;99.90;;;;;;5072281;28;19969;-71
2021/01/16 08:55:08;;;;;;;;;;;-0.70;99.90;;;;;;5072448;28;19931;-71
2021/01/16 08:57:36;;;;;;;;;;;-0.80;99.90;;;;;;5072466;28;19933;-71
2021/01/16 09:00:19;;;;;;;;;;;-0.70;99.90;;;;;;5071930;28;19932;-71
2021/01/16 09:03:00;;;;;;;;;;;-0.70;99.90;;;;;;5072293;28;19928;-71
2021/01/16 09:05:26;;;;;;;;;;;-0.60;99.90;;;;;;5071560;28;20352;-71
2021/01/16 09:07:53;;;;;;;;;;;-0.70;99.90;;;;;;5072468;28;19925;-71
2021/01/16 09:10:23;;;;;;;;;;;-0.60;99.90;;;;;;5071998;28;19924;-71
2021/01/16 09:12:50;;;;;;;;;;;-0.70;99.90;;;;;;5072079;28;20393;-71
2021/01/16 09:15:17;;;;;;;;;;;-0.70;99.90;;;;;;5072088;28;19924;-71
2021/01/16 09:17:58;;;;;;;;;;;-0.70;99.90;;;;;;5072029;28;19932;-71
2021/01/16 09:20:24;;;;;;;;;;;-0.60;99.90;;;;;;5071963;28;19982;-71
2021/01/16 09:22:50;;;;;;;;;;;-0.60;99.90;;;;;;5072092;28;19925;-71
2021/01/16 09:25:18;;;;;;;;;;;-0.70;99.90;;;;;;5071971;28;19935;-71
2021/01/16 09:27:46;;;;;;;;;;;-0.60;99.90;;;;;;5072002;28;19924;-71
2021/01/16 09:30:19;;;;;;;;;;;-0.60;99.90;;;;;;5071568;28;19924;-70
2021/01/16 09:32:45;;;;;;;;;;;-0.50;99.90;;;;;;5072159;28;19924;-71
2021/01/16 09:35:11;;;;;;;;;;;-0.40;99.90;;;;;;5072061;28;19939;-71
2021/01/16 09:37:38;;;;;;;;;;;-0.40;99.90;;;;;;5076016;28;19935;-72
2021/01/16 09:40:11;;;;;;;;;;;-0.30;99.90;;;;;;5075539;28;19970;-72
2021/01/16 09:42:44;;;;;;;;;;;-0.20;99.90;;;;;;5075734;28;19932;-71
2021/01/16 09:45:11;;;;;;;;;;;-0.10;99.90;;;;;;5075568;28;20280;-71
2021/01/16 09:47:53;;;;;;;;;;;0.00;99.90;;;;;;5075730;28;20355;-70
2021/01/16 09:50:20;;;;;;;;;;;0.00;99.90;;;;;;5075426;28;19932;-71
2021/01/16 09:52:47;;;;;;;;;;;0.00;99.90;;;;;;5075497;28;19925;-70
2021/01/16 09:55:21;;;;;;;;;;;0.00;99.90;;;;;;5075352;28;19939;-71
2021/01/16 09:57:47;;;;;;;;;;;0.10;99.90;;;;;;5075414;28;20385;-70
2021/01/16 10:00:14;;;;;;;;;;;0.10;99.90;;;;;;5075113;28;19925;-70
2021/01/16 10:02:43;;;;;;;;;;;0.10;99.90;;;;;;5075249;28;19925;-70
2021/01/16 10:05:13;;;;;;;;;;;0.20;99.90;;;;;;5075234;28;19970;-71
2021/01/16 10:07:40;;;;;;;;;;;0.30;99.90;;;;;;5075237;28;19931;-71
2021/01/16 10:10:13;;;;;;;;;;;0.30;99.90;;;;;;5074828;28;20607;-70
2021/01/16 10:12:40;;;;;;;;;;;0.30;99.90;;;;;;5075064;28;19954;-70
2021/01/16 10:15:08;;;;;;;;;;;0.30;99.90;;;;;;5075147;28;19929;-71
2021/01/16 10:17:34;;;;;;;;;;;0.40;99.90;;;;;;5075132;28;19933;-71
2021/01/16 10:20:03;;;;;;;;;;;0.50;99.90;;;;;;5074631;28;19924;-71
2021/01/16 10:22:30;;;;;;;;;;;0.40;99.90;;;;;;5075021;28;19924;-71
2021/01/16 10:24:59;;;;;;;;;;;0.40;99.90;;;;;;5075058;28;19925;-69
2021/01/16 10:27:40;;;;;;;;;;;0.40;99.90;;;;;;5074978;28;20011;-70
2021/01/16 10:30:10;;;;;;;;;;;0.30;99.90;;;;;;5074600;28;19924;-70
2021/01/16 10:32:36;;;;;;;;;;;0.40;99.90;;;;;;5074775;28;20397;-69
2021/01/16 10:35:02;;;;;;;;;;;0.40;99.90;;;;;;5074947;28;19931;-70
2021/01/16 10:37:29;;;;;;;;;;;0.40;99.90;;;;;;5074872;28;19928;-70
2021/01/16 10:40:03;;;;;;;;;;;0.50;99.90;;;;;;5074574;28;19924;-70
2021/01/16 10:42:39;;;;;;;;;;;0.50;99.90;;;;;;5074696;28;19932;-70
2021/01/16 10:45:06;;;;;;;;;;;0.60;99.90;;;;;;5074666;28;19924;-70
2021/01/16 10:47:33;;;;;;;;;;;0.60;99.90;;;;;;5074253;28;19993;-70
2021/01/16 10:50:03;;;;;;;;;;;0.60;99.90;;;;;;5074437;28;19967;-71
2021/01/16 10:52:29;;;;;;;;;;;0.60;99.90;;;;;;5074406;28;19994;-71
2021/01/16 10:55:00;;;;;;;;;;;0.60;99.90;;;;;;5074631;28;19924;-70
2021/01/16 10:57:39;;;;;;;;;;;0.60;99.90;;;;;;5074355;28;19924;-70
2021/01/16 11:00:11;;;;;;;;;;;0.50;99.90;;;;;;5073892;28;20491;-71
2021/01/16 11:02:38;;;;;;;;;;;0.50;99.90;;;;;;5074181;28;19925;-71
2021/01/16 11:05:17;;;;;;;;;;;0.60;99.90;;;;;;5074317;28;19940;-71
2021/01/16 11:07:43;;;;;;;;;;;0.60;99.90;;;;;;5074293;28;19925;-71
2021/01/16 11:10:11;;;;;;;;;;;0.70;99.90;;;;;;5073791;28;19924;-71
2021/01/16 11:12:37;;;;;;;;;;;0.70;99.90;;;;;;5074162;28;19932;-71
2021/01/16 11:15:21;;;;;;;;;;;0.60;99.90;;;;;;5074065;28;20021;-71
2021/01/16 11:17:47;;;;;;;;;;;0.50;99.90;;;;;;5074142;28;19924;-71
2021/01/16 11:20:24;;;;;;;;;;;0.70;99.90;;;;;;5073734;28;19978;-71
2021/01/16 11:23:08;;;;;;;;;;;0.80;99.90;;;;;;5073846;28;20270;-71
2021/01/16 11:25:41;;;;;;;;;;;1.00;99.90;;;;;;5073932;28;19925;-71
2021/01/16 11:28:07;;;;;;;;;;;1.10;99.90;;;;;;5073813;28;20331;-71
2021/01/16 11:30:41;;;;;;;;;;;1.20;99.90;;;;;;5073361;28;20377;-71
2021/01/16 11:33:14;;;;;;;;;;;1.20;99.90;;;;;;5073773;28;19924;-70
2021/01/16 11:35:41;;;;;;;;;;;1.30;99.90;;;;;;5073627;28;19924;-70
2021/01/16 11:38:32;;;;;;;;;;;1.40;99.90;;;;;;5073733;28;19924;-70
2021/01/16 11:40:59;;;;;;;;;;;1.50;99.90;;;;;;5073042;28;19929;-70
2021/01/16 11:43:25;;;;;;;;;;;1.70;99.90;;;;;;5073395;28;19957;-70
2021/01/16 11:46:00;;;;;;;;;;;1.90;99.90;;;;;;5073640;28;19929;-70
2021/01/16 11:48:26;;;;;;;;;;;1.90;99.90;;;;;;5073572;28;20296;-70
2021/01/16 11:50:52;;;;;;;;;;;2.10;99.90;;;;;;5073252;28;19963;-70
2021/01/16 11:53:18;;;;;;;;;;;2.10;99.90;;;;;;5073224;28;19985;-70
2021/01/16 11:55:44;;;;;;;;;;;2.20;99.90;;;;;;5073448;28;19932;-70
2021/01/16 11:58:12;;;;;;;;;;;2.20;99.90;;;;;;5073533;28;20274;-72
2021/01/16 12:00:38;;;;;;;;;;;2.20;99.90;;;;;;5071979;28;19928;-70
2021/01/16 12:03:04;;;;;;;;;;;2.20;99.90;;;;;;5073064;28;19925;-70
2021/01/16 12:05:30;;;;;;;;;;;2.20;99.90;;;;;;5073097;28;19970;-70
2021/01/16 12:07:57;;;;;;;;;;;2.20;99.90;;;;;;5073021;28;19928;-70
2021/01/16 12:10:24;;;;;;;;;;;2.20;99.90;;;;;;5072538;28;19924;-70
2021/01/16 12:12:50;;;;;;;;;;;4.60;99.90;;;;;;5073096;28;19925;-70
2021/01/16 12:15:17;;;;;;;;;;;2.20;99.90;;;;;;5072860;28;20381;-70
2021/01/16 12:17:45;;;;;;;;;;;2.30;99.90;;;;;;5072916;28;20070;-70
2021/01/16 12:20:11;;;;;;;;;;;2.30;99.90;;;;;;5072433;28;20335;-72
2021/01/16 12:22:38;;;;;;;;;;;2.30;99.90;;;;;;5072732;28;19928;-72
2021/01/16 12:25:07;;;;;;;;;;;2.20;99.90;;;;;;5072516;28;19925;-71
2021/01/16 12:27:34;;;;;;;;;;;2.10;99.90;;;;;;5072664;28;19924;-71
2021/01/16 12:30:00;;;;;;;;;;;2.00;99.90;;;;;;5072246;28;20352;-71
2021/01/16 12:32:27;;;;;;;;;;;2.10;99.90;;;;;;5072640;28;19924;-71
2021/01/16 12:34:53;;;;;;;;;;;2.20;99.90;;;;;;5072656;28;19925;-71
2021/01/16 12:37:24;;;;;;;;;;;2.30;99.90;;;;;;5072618;28;19978;-71
2021/01/16 12:39:50;;;;;;;;;;;2.20;99.90;;;;;;5072373;28;19924;-71
2021/01/16 12:42:16;;;;;;;;;;;2.10;99.90;;;;;;5072686;28;19924;-71
2021/01/16 12:44:42;;;;;;;;;;;2.00;99.90;;;;;;5072527;28;20038;-71
2021/01/16 12:47:09;;;;;;;;;;;2.00;99.90;;;;;;5072468;28;19942;-72
2021/01/16 12:49:36;;;;;;;;;;;2.30;99.90;;;;;;5072531;28;19924;-71
2021/01/16 12:52:02;;;;;;;;;;;2.90;99.90;;;;;;5072158;28;19931;-71
2021/01/16 12:54:28;;;;;;;;;;;2.90;99.90;;;;;;5072269;28;19932;-71
2021/01/16 12:56:55;;;;;;;;;;;2.70;99.90;;;;;;5072221;28;19925;-71
2021/01/16 12:59:21;;;;;;;;;;;2.50;99.90;;;;;;5072303;28;19924;-71
2021/01/16 13:01:48;;;;;;;;;;;2.60;99.90;;;;;;5072072;28;19924;-71
2021/01/16 13:04:15;;;;;;;;;;;2.70;99.90;;;;;;5072136;28;19931;-71
2021/01/16 13:06:43;;;;;;;;;;;2.50;99.90;;;;;;5072236;28;20769;-71
2021/01/16 13:09:09;;;;;;;;;;;2.40;99.90;;;;;;5072109;28;20015;-71
2021/01/16 13:11:36;;;;;;;;;;;2.40;99.90;;;;;;5076721;28;19924;-71
2021/01/16 13:14:03;;;;;;;;;;;2.40;99.90;;;;;;5078953;28;19924;-71
2021/01/16 13:16:30;;;;;;;;;;;2.20;99.90;;;;;;5078841;28;20014;-71
2021/01/16 13:18:59;;;;;;;;;;;2.10;99.90;;;;;;5078966;28;19946;-71
2021/01/16 13:21:28;;;;;;;;;;;1.80;99.90;;;;;;5078368;28;19929;-71
2021/01/16 13:23:55;;;;;;;;;;;1.50;99.90;;;;;;5078828;28;19925;-71
2021/01/16 13:26:21;;;;;;;;;;;1.30;99.90;;;;;;5078565;28;20560;-71
2021/01/16 13:28:48;;;;;;;;;;;1.20;99.90;;;;;;5078775;28;19935;-71
2021/01/16 13:31:15;;;;;;;;;;;1.10;99.90;;;;;;5078544;28;19925;-71
2021/01/16 13:33:45;;;;;;;;;;;1.00;99.90;;;;;;5078536;28;20292;-71
2021/01/16 13:36:12;;;;;;;;;;;-0.10;99.90;;;;;;5079146;28;19932;-71
2021/01/16 13:38:38;;;;;;;;;;;0.90;99.90;;;;;;5078722;28;19924;-71
2021/01/16 13:41:05;;;;;;;;;;;0.90;99.90;;;;;;5078348;28;19924;-71
2021/01/16 13:43:37;;;;;;;;;;;0.80;99.90;;;;;;5078297;28;20377;-71
2021/01/16 13:46:03;;;;;;;;;;;0.80;99.90;;;;;;5078551;28;19924;-71
2021/01/16 13:48:39;;;;;;;;;;;0.80;99.90;;;;;;5078437;28;20408;-71
2021/01/16 13:51:19;;;;;;;;;;;0.90;99.90;;;;;;5078435;28;19950;-71
2021/01/16 13:53:51;;;;;;;;;;;0.80;99.90;;;;;;5078534;28;19963;-71
2021/01/16 13:56:19;;;;;;;;;;;0.80;99.90;;;;;;5078545;28;19932;-71
2021/01/16 13:58:45;;;;;;;;;;;0.80;99.90;;;;;;5078312;28;20306;-71
2021/01/16 14:01:11;;;;;;;;;;;0.80;99.90;;;;;;5078332;28;19982;-71
2021/01/16 14:03:38;;;;;;;;;;;0.70;99.90;;;;;;5078526;28;19924;-71
2021/01/16 14:06:05;;;;;;;;;;;0.70;99.90;;;;;;5078487;28;19924;-71
2021/01/16 14:08:31;;;;;;;;;;;0.70;99.90;;;;;;5078389;28;20278;-71
2021/01/16 14:11:00;;;;;;;;;;;0.70;99.90;;;;;;5078090;28;19924;-71
2021/01/16 14:13:34;;;;;;;;;;;0.60;99.90;;;;;;5078280;28;19924;-71
2021/01/16 14:16:04;;;;;;;;;;;0.50;99.90;;;;;;5078400;28;19931;-71
2021/01/16 14:18:31;;;;;;;;;;;0.40;99.90;;;;;;5078292;28;19932;-71
2021/01/16 14:20:58;;;;;;;;;;;0.20;99.90;;;;;;5077938;28;20393;-71
2021/01/16 14:23:26;;;;;;;;;;;0.20;99.90;;;;;;5075756;28;19932;-71
2021/01/16 14:25:53;;;;;;;;;;;0.20;99.90;;;;;;5074897;28;19924;-71